sensor_id;sensor_type;location;lat;lon;timestamp;P1;durP1;ratioP1;P2;durP2;ratioP2
14203;SDS011;7185;51.854;6.622;2023-07-31T00:01:28;4.40;;;1.80;;
14203;SDS011;7185;51.854;6.622;2023-07-31T00:04:02;4.28;;;1.92;;
14203;SDS011;7185;51.854;6.622;2023-07-31T00:10:14;5.27;;;2.10;;
14203;SDS011;7185;51.854;6.622;2023-07-31T00:13:21;2.70;;;1.67;;
14203;SDS011;7185;51.854;6.622;2023-07-31T00:15:53;4.38;;;1.90;;
14203;SDS011;7185;51.854;6.622;2023-07-31T00:18:25;3.92;;;1.95;;
14203;SDS011;7185;51.854;6.622;2023-07-31T00:20:58;4.63;;;1.85;;
14203;SDS011;7185;51.854;6.622;2023-07-31T00:23:30;3.78;;;1.98;;
14203;SDS011;7185;51.854;6.622;2023-07-31T00:26:02;2.85;;;1.60;;
14203;SDS011;7185;51.854;6.622;2023-07-31T00:28:33;4.45;;;2.00;;
14203;SDS011;7185;51.854;6.622;2023-07-31T00:31:05;2.55;;;1.60;;
14203;SDS011;7185;51.854;6.622;2023-07-31T00:33:37;5.22;;;1.90;;
14203;SDS011;7185;51.854;6.622;2023-07-31T00:36:10;4.65;;;1.70;;
14203;SDS011;7185;51.854;6.622;2023-07-31T00:38:42;3.35;;;1.60;;
14203;SDS011;7185;51.854;6.622;2023-07-31T00:41:14;2.65;;;1.50;;
14203;SDS011;7185;51.854;6.622;2023-07-31T00:43:45;3.65;;;1.73;;
14203;SDS011;7185;51.854;6.622;2023-07-31T00:46:17;4.40;;;1.60;;
14203;SDS011;7185;51.854;6.622;2023-07-31T00:48:49;2.40;;;1.35;;
14203;SDS011;7185;51.854;6.622;2023-07-31T00:51:23;3.80;;;1.45;;
14203;SDS011;7185;51.854;6.622;2023-07-31T00:53:55;2.80;;;1.55;;
14203;SDS011;7185;51.854;6.622;2023-07-31T00:56:27;2.95;;;1.42;;
14203;SDS011;7185;51.854;6.622;2023-07-31T00:59:00;3.33;;;1.70;;
14203;SDS011;7185;51.854;6.622;2023-07-31T01:01:31;3.55;;;1.75;;
14203;SDS011;7185;51.854;6.622;2023-07-31T01:04:03;4.10;;;2.28;;
14203;SDS011;7185;51.854;6.622;2023-07-31T01:06:38;5.22;;;2.40;;
14203;SDS011;7185;51.854;6.622;2023-07-31T01:09:23;6.88;;;2.70;;
14203;SDS011;7185;51.854;6.622;2023-07-31T01:12:06;11.50;;;5.30;;
14203;SDS011;7185;51.854;6.622;2023-07-31T01:14:40;9.07;;;5.35;;
14203;SDS011;7185;51.854;6.622;2023-07-31T01:17:22;14.95;;;7.20;;
14203;SDS011;7185;51.854;6.622;2023-07-31T01:19:54;21.48;;;8.05;;
14203;SDS011;7185;51.854;6.622;2023-07-31T01:22:36;27.75;;;8.85;;
14203;SDS011;7185;51.854;6.622;2023-07-31T01:25:32;24.23;;;9.82;;
14203;SDS011;7185;51.854;6.622;2023-07-31T01:28:31;31.30;;;12.20;;
14203;SDS011;7185;51.854;6.622;2023-07-31T01:31:12;35.53;;;12.05;;
14203;SDS011;7185;51.854;6.622;2023-07-31T01:33:48;33.20;;;14.07;;
14203;SDS011;7185;51.854;6.622;2023-07-31T01:36:21;34.03;;;12.48;;
14203;SDS011;7185;51.854;6.622;2023-07-31T01:38:57;27.77;;;13.02;;
14203;SDS011;7185;51.854;6.622;2023-07-31T01:41:29;34.85;;;11.75;;
14203;SDS011;7185;51.854;6.622;2023-07-31T01:44:03;30.33;;;12.50;;
14203;SDS011;7185;51.854;6.622;2023-07-31T01:46:35;33.33;;;13.40;;
14203;SDS011;7185;51.854;6.622;2023-07-31T01:49:07;30.45;;;11.50;;
14203;SDS011;7185;51.854;6.622;2023-07-31T01:51:39;28.95;;;12.05;;
14203;SDS011;7185;51.854;6.622;2023-07-31T01:54:10;24.90;;;12.00;;
14203;SDS011;7185;51.854;6.622;2023-07-31T01:56:42;28.15;;;11.40;;
14203;SDS011;7185;51.854;6.622;2023-07-31T01:59:15;30.08;;;12.10;;
14203;SDS011;7185;51.854;6.622;2023-07-31T02:01:47;25.00;;;11.15;;
14203;SDS011;7185;51.854;6.622;2023-07-31T02:04:19;31.42;;;11.55;;
14203;SDS011;7185;51.854;6.622;2023-07-31T02:06:51;26.00;;;10.13;;
14203;SDS011;7185;51.854;6.622;2023-07-31T02:09:24;22.00;;;9.50;;
14203;SDS011;7185;51.854;6.622;2023-07-31T02:11:55;23.02;;;9.38;;
14203;SDS011;7185;51.854;6.622;2023-07-31T02:14:29;21.20;;;10.05;;
14203;SDS011;7185;51.854;6.622;2023-07-31T02:17:00;24.88;;;9.32;;
14203;SDS011;7185;51.854;6.622;2023-07-31T02:19:32;21.50;;;9.57;;
14203;SDS011;7185;51.854;6.622;2023-07-31T02:22:04;21.52;;;8.57;;
14203;SDS011;7185;51.854;6.622;2023-07-31T02:24:36;25.55;;;8.65;;
14203;SDS011;7185;51.854;6.622;2023-07-31T02:27:08;24.50;;;8.02;;
14203;SDS011;7185;51.854;6.622;2023-07-31T02:29:41;24.52;;;8.20;;
14203;SDS011;7185;51.854;6.622;2023-07-31T02:32:13;23.88;;;8.02;;
14203;SDS011;7185;51.854;6.622;2023-07-31T02:34:45;22.38;;;7.68;;
14203;SDS011;7185;51.854;6.622;2023-07-31T02:37:17;25.02;;;8.57;;
14203;SDS011;7185;51.854;6.622;2023-07-31T02:39:48;22.50;;;7.80;;
14203;SDS011;7185;51.854;6.622;2023-07-31T02:42:20;23.23;;;8.23;;
14203;SDS011;7185;51.854;6.622;2023-07-31T02:44:53;19.85;;;7.70;;
14203;SDS011;7185;51.854;6.622;2023-07-31T02:47:26;23.02;;;7.85;;
14203;SDS011;7185;51.854;6.622;2023-07-31T02:49:57;23.45;;;8.23;;
14203;SDS011;7185;51.854;6.622;2023-07-31T02:52:30;18.50;;;8.32;;
14203;SDS011;7185;51.854;6.622;2023-07-31T02:55:02;26.05;;;7.80;;
14203;SDS011;7185;51.854;6.622;2023-07-31T02:57:34;20.42;;;7.90;;
14203;SDS011;7185;51.854;6.622;2023-07-31T03:00:07;17.58;;;7.32;;
14203;SDS011;7185;51.854;6.622;2023-07-31T03:02:39;20.00;;;7.50;;
14203;SDS011;7185;51.854;6.622;2023-07-31T03:05:11;20.75;;;7.18;;
14203;SDS011;7185;51.854;6.622;2023-07-31T03:07:43;17.95;;;7.22;;
14203;SDS011;7185;51.854;6.622;2023-07-31T03:10:15;19.85;;;7.18;;
14203;SDS011;7185;51.854;6.622;2023-07-31T03:12:47;21.15;;;7.68;;
14203;SDS011;7185;51.854;6.622;2023-07-31T03:15:21;23.00;;;7.03;;
14203;SDS011;7185;51.854;6.622;2023-07-31T03:17:52;19.98;;;7.85;;
14203;SDS011;7185;51.854;6.622;2023-07-31T03:20:24;23.88;;;7.03;;
14203;SDS011;7185;51.854;6.622;2023-07-31T03:22:56;18.13;;;6.60;;
14203;SDS011;7185;51.854;6.622;2023-07-31T03:25:28;20.42;;;6.72;;
14203;SDS011;7185;51.854;6.622;2023-07-31T03:28:01;24.02;;;7.22;;
14203;SDS011;7185;51.854;6.622;2023-07-31T03:30:34;18.98;;;7.07;;
14203;SDS011;7185;51.854;6.622;2023-07-31T03:33:08;22.88;;;6.38;;
14203;SDS011;7185;51.854;6.622;2023-07-31T03:35:51;17.77;;;6.53;;
14203;SDS011;7185;51.854;6.622;2023-07-31T03:38:25;19.85;;;6.57;;
14203;SDS011;7185;51.854;6.622;2023-07-31T03:40:57;19.48;;;7.32;;
14203;SDS011;7185;51.854;6.622;2023-07-31T03:43:30;21.55;;;6.78;;
14203;SDS011;7185;51.854;6.622;2023-07-31T03:46:05;25.95;;;6.82;;
14203;SDS011;7185;51.854;6.622;2023-07-31T03:48:36;19.92;;;7.10;;
14203;SDS011;7185;51.854;6.622;2023-07-31T03:51:08;17.40;;;6.32;;
14203;SDS011;7185;51.854;6.622;2023-07-31T03:55:58;21.73;;;6.97;;
14203;SDS011;7185;51.854;6.622;2023-07-31T03:57:09;39.65;;;6.90;;
14203;SDS011;7185;51.854;6.622;2023-07-31T03:59:59;18.98;;;5.90;;
14203;SDS011;7185;51.854;6.622;2023-07-31T04:02:33;23.17;;;5.97;;
14203;SDS011;7185;51.854;6.622;2023-07-31T04:05:05;20.80;;;6.05;;
14203;SDS011;7185;51.854;6.622;2023-07-31T04:07:37;17.83;;;6.25;;
14203;SDS011;7185;51.854;6.622;2023-07-31T04:10:09;24.48;;;6.60;;
14203;SDS011;7185;51.854;6.622;2023-07-31T04:12:41;16.25;;;6.22;;
14203;SDS011;7185;51.854;6.622;2023-07-31T04:15:13;21.77;;;6.50;;
14203;SDS011;7185;51.854;6.622;2023-07-31T04:17:46;22.20;;;6.03;;
14203;SDS011;7185;51.854;6.622;2023-07-31T04:20:18;22.52;;;6.25;;
14203;SDS011;7185;51.854;6.622;2023-07-31T04:22:54;17.80;;;6.82;;
14203;SDS011;7185;51.854;6.622;2023-07-31T04:25:26;18.02;;;5.85;;
14203;SDS011;7185;51.854;6.622;2023-07-31T04:28:10;23.92;;;6.75;;
14203;SDS011;7185;51.854;6.622;2023-07-31T04:30:45;17.77;;;5.82;;
14203;SDS011;7185;51.854;6.622;2023-07-31T04:33:18;19.35;;;6.97;;
14203;SDS011;7185;51.854;6.622;2023-07-31T04:35:50;18.40;;;5.80;;
14203;SDS011;7185;51.854;6.622;2023-07-31T04:38:23;18.70;;;5.90;;
14203;SDS011;7185;51.854;6.622;2023-07-31T04:40:58;17.70;;;6.07;;
14203;SDS011;7185;51.854;6.622;2023-07-31T04:43:30;18.80;;;5.57;;
14203;SDS011;7185;51.854;6.622;2023-07-31T04:46:02;17.92;;;6.28;;
14203;SDS011;7185;51.854;6.622;2023-07-31T04:48:38;21.33;;;6.43;;
14203;SDS011;7185;51.854;6.622;2023-07-31T04:51:09;24.17;;;6.38;;
14203;SDS011;7185;51.854;6.622;2023-07-31T04:53:41;19.33;;;6.07;;
14203;SDS011;7185;51.854;6.622;2023-07-31T04:56:13;16.88;;;5.63;;
14203;SDS011;7185;51.854;6.622;2023-07-31T04:58:45;21.52;;;6.00;;
14203;SDS011;7185;51.854;6.622;2023-07-31T05:01:26;17.60;;;6.18;;
14203;SDS011;7185;51.854;6.622;2023-07-31T05:04:12;20.40;;;6.40;;
14203;SDS011;7185;51.854;6.622;2023-07-31T05:07:01;14.75;;;6.43;;
14203;SDS011;7185;51.854;6.622;2023-07-31T05:09:41;20.85;;;6.82;;
14203;SDS011;7185;51.854;6.622;2023-07-31T05:12:20;17.48;;;6.47;;
14203;SDS011;7185;51.854;6.622;2023-07-31T05:15:08;17.48;;;6.20;;
14203;SDS011;7185;51.854;6.622;2023-07-31T05:17:55;22.30;;;6.32;;
14203;SDS011;7185;51.854;6.622;2023-07-31T05:20:39;19.20;;;7.18;;
14203;SDS011;7185;51.854;6.622;2023-07-31T05:23:14;15.98;;;6.07;;
14203;SDS011;7185;51.854;6.622;2023-07-31T05:28:41;18.30;;;6.00;;
14203;SDS011;7185;51.854;6.622;2023-07-31T05:31:17;16.13;;;6.03;;
14203;SDS011;7185;51.854;6.622;2023-07-31T05:33:49;16.02;;;5.55;;
14203;SDS011;7185;51.854;6.622;2023-07-31T05:36:23;14.68;;;5.60;;
14203;SDS011;7185;51.854;6.622;2023-07-31T05:38:55;21.83;;;6.70;;
14203;SDS011;7185;51.854;6.622;2023-07-31T05:41:44;17.90;;;5.97;;
14203;SDS011;7185;51.854;6.622;2023-07-31T05:44:16;15.48;;;5.95;;
14203;SDS011;7185;51.854;6.622;2023-07-31T05:46:49;17.77;;;5.55;;
14203;SDS011;7185;51.854;6.622;2023-07-31T05:49:21;17.02;;;5.85;;
14203;SDS011;7185;51.854;6.622;2023-07-31T05:51:55;19.45;;;5.90;;
14203;SDS011;7185;51.854;6.622;2023-07-31T05:54:36;18.50;;;5.35;;
14203;SDS011;7185;51.854;6.622;2023-07-31T05:57:24;16.08;;;5.38;;
14203;SDS011;7185;51.854;6.622;2023-07-31T06:00:11;19.23;;;5.45;;
14203;SDS011;7185;51.854;6.622;2023-07-31T06:03:02;19.08;;;6.03;;
14203;SDS011;7185;51.854;6.622;2023-07-31T06:05:54;18.77;;;6.38;;
14203;SDS011;7185;51.854;6.622;2023-07-31T06:08:33;18.80;;;6.43;;
14203;SDS011;7185;51.854;6.622;2023-07-31T06:11:22;19.63;;;5.95;;
14203;SDS011;7185;51.854;6.622;2023-07-31T06:13:58;16.65;;;6.05;;
14203;SDS011;7185;51.854;6.622;2023-07-31T06:16:43;17.30;;;6.72;;
14203;SDS011;7185;51.854;6.622;2023-07-31T06:19:22;16.58;;;6.72;;
14203;SDS011;7185;51.854;6.622;2023-07-31T06:24:43;14.75;;;6.13;;
14203;SDS011;7185;51.854;6.622;2023-07-31T06:27:15;16.77;;;6.97;;
14203;SDS011;7185;51.854;6.622;2023-07-31T06:29:47;17.20;;;6.65;;
14203;SDS011;7185;51.854;6.622;2023-07-31T06:32:39;17.92;;;7.15;;
14203;SDS011;7185;51.854;6.622;2023-07-31T06:35:12;27.45;;;7.65;;
14203;SDS011;7185;51.854;6.622;2023-07-31T06:38:01;19.13;;;6.68;;
14203;SDS011;7185;51.854;6.622;2023-07-31T06:40:39;18.92;;;6.60;;
14203;SDS011;7185;51.854;6.622;2023-07-31T06:43:14;19.73;;;7.55;;
14203;SDS011;7185;51.854;6.622;2023-07-31T06:45:51;16.92;;;6.97;;
14203;SDS011;7185;51.854;6.622;2023-07-31T06:48:28;16.42;;;7.28;;
14203;SDS011;7185;51.854;6.622;2023-07-31T06:53:58;17.92;;;6.97;;
14203;SDS011;7185;51.854;6.622;2023-07-31T07:07:17;12.70;;;5.60;;
14203;SDS011;7185;51.854;6.622;2023-07-31T07:10:01;10.27;;;5.30;;
14203;SDS011;7185;51.854;6.622;2023-07-31T07:13:19;12.95;;;5.72;;
14203;SDS011;7185;51.854;6.622;2023-07-31T07:16:01;13.90;;;5.68;;
14203;SDS011;7185;51.854;6.622;2023-07-31T08:05:45;9.52;;;4.70;;
14203;SDS011;7185;51.854;6.622;2023-07-31T08:08:36;9.10;;;4.75;;
14203;SDS011;7185;51.854;6.622;2023-07-31T08:11:24;10.75;;;4.70;;
14203;SDS011;7185;51.854;6.622;2023-07-31T08:35:34;8.60;;;4.80;;
14203;SDS011;7185;51.854;6.622;2023-07-31T08:38:42;10.27;;;4.97;;
14203;SDS011;7185;51.854;6.622;2023-07-31T08:45:04;8.63;;;5.55;;
14203;SDS011;7185;51.854;6.622;2023-07-31T09:35:40;7.13;;;4.05;;
14203;SDS011;7185;51.854;6.622;2023-07-31T09:42:52;8.15;;;4.35;;
14203;SDS011;7185;51.854;6.622;2023-07-31T10:15:47;10.50;;;5.20;;
14203;SDS011;7185;51.854;6.622;2023-07-31T10:18:36;8.25;;;4.53;;
14203;SDS011;7185;51.854;6.622;2023-07-31T10:21:44;10.90;;;5.28;;
14203;SDS011;7185;51.854;6.622;2023-07-31T10:30:17;7.40;;;5.07;;
14203;SDS011;7185;51.854;6.622;2023-07-31T10:33:36;8.38;;;4.65;;
14203;SDS011;7185;51.854;6.622;2023-07-31T10:36:13;11.05;;;5.80;;
14203;SDS011;7185;51.854;6.622;2023-07-31T10:39:05;9.82;;;5.47;;
14203;SDS011;7185;51.854;6.622;2023-07-31T10:42:11;11.80;;;7.13;;
14203;SDS011;7185;51.854;6.622;2023-07-31T10:45:08;15.88;;;7.32;;
14203;SDS011;7185;51.854;6.622;2023-07-31T10:48:15;12.98;;;7.18;;
14203;SDS011;7185;51.854;6.622;2023-07-31T11:01:58;14.93;;;9.50;;
14203;SDS011;7185;51.854;6.622;2023-07-31T11:05:11;16.17;;;8.82;;
14203;SDS011;7185;51.854;6.622;2023-07-31T11:18:18;15.82;;;8.77;;
14203;SDS011;7185;51.854;6.622;2023-07-31T11:21:09;16.50;;;9.23;;
14203;SDS011;7185;51.854;6.622;2023-07-31T11:30:47;15.35;;;7.10;;
14203;SDS011;7185;51.854;6.622;2023-07-31T11:33:27;12.85;;;7.28;;
14203;SDS011;7185;51.854;6.622;2023-07-31T11:36:28;13.52;;;6.28;;
14203;SDS011;7185;51.854;6.622;2023-07-31T11:39:22;10.18;;;6.18;;
14203;SDS011;7185;51.854;6.622;2023-07-31T11:42:05;9.65;;;5.20;;
14203;SDS011;7185;51.854;6.622;2023-07-31T11:44:40;9.57;;;5.20;;
14203;SDS011;7185;51.854;6.622;2023-07-31T11:50:26;9.73;;;5.57;;
14203;SDS011;7185;51.854;6.622;2023-07-31T11:53:16;10.18;;;5.05;;
14203;SDS011;7185;51.854;6.622;2023-07-31T11:56:12;9.43;;;4.53;;
14203;SDS011;7185;51.854;6.622;2023-07-31T11:58:52;7.88;;;4.68;;
14203;SDS011;7185;51.854;6.622;2023-07-31T12:01:27;11.77;;;5.40;;
14203;SDS011;7185;51.854;6.622;2023-07-31T12:04:17;10.65;;;4.90;;
14203;SDS011;7185;51.854;6.622;2023-07-31T12:06:54;9.45;;;4.75;;
14203;SDS011;7185;51.854;6.622;2023-07-31T12:09:38;9.07;;;4.82;;
14203;SDS011;7185;51.854;6.622;2023-07-31T12:12:30;8.00;;;4.82;;
14203;SDS011;7185;51.854;6.622;2023-07-31T12:15:17;8.63;;;4.43;;
14203;SDS011;7185;51.854;6.622;2023-07-31T12:17:51;9.05;;;4.53;;
14203;SDS011;7185;51.854;6.622;2023-07-31T12:20:29;10.57;;;4.90;;
14203;SDS011;7185;51.854;6.622;2023-07-31T12:23:13;8.57;;;4.72;;
14203;SDS011;7185;51.854;6.622;2023-07-31T12:25:54;7.57;;;4.68;;
14203;SDS011;7185;51.854;6.622;2023-07-31T12:28:49;10.15;;;5.15;;
14203;SDS011;7185;51.854;6.622;2023-07-31T12:31:29;9.15;;;4.75;;
14203;SDS011;7185;51.854;6.622;2023-07-31T12:34:14;9.00;;;4.90;;
14203;SDS011;7185;51.854;6.622;2023-07-31T12:36:55;7.38;;;4.70;;
14203;SDS011;7185;51.854;6.622;2023-07-31T12:39:36;7.13;;;4.93;;
14203;SDS011;7185;51.854;6.622;2023-07-31T12:42:33;9.48;;;5.15;;
14203;SDS011;7185;51.854;6.622;2023-07-31T12:45:21;10.10;;;4.85;;
14203;SDS011;7185;51.854;6.622;2023-07-31T12:48:01;10.88;;;5.32;;
14203;SDS011;7185;51.854;6.622;2023-07-31T12:50:53;8.63;;;4.93;;
14203;SDS011;7185;51.854;6.622;2023-07-31T12:56:35;7.63;;;4.72;;
14203;SDS011;7185;51.854;6.622;2023-07-31T12:59:08;10.13;;;4.83;;
14203;SDS011;7185;51.854;6.622;2023-07-31T13:02:01;7.22;;;4.28;;
14203;SDS011;7185;51.854;6.622;2023-07-31T13:04:36;7.53;;;4.20;;
14203;SDS011;7185;51.854;6.622;2023-07-31T13:07:31;7.50;;;4.10;;
14203;SDS011;7185;51.854;6.622;2023-07-31T13:10:25;6.95;;;3.88;;
14203;SDS011;7185;51.854;6.622;2023-07-31T13:13:12;7.90;;;4.75;;
14203;SDS011;7185;51.854;6.622;2023-07-31T13:16:00;7.07;;;3.70;;
14203;SDS011;7185;51.854;6.622;2023-07-31T13:18:51;6.63;;;3.80;;
14203;SDS011;7185;51.854;6.622;2023-07-31T13:21:27;8.68;;;3.88;;
14203;SDS011;7185;51.854;6.622;2023-07-31T13:24:06;6.80;;;3.33;;
14203;SDS011;7185;51.854;6.622;2023-07-31T13:27:14;5.72;;;3.40;;
14203;SDS011;7185;51.854;6.622;2023-07-31T13:30:16;5.90;;;3.35;;
14203;SDS011;7185;51.854;6.622;2023-07-31T13:32:58;6.50;;;3.47;;
14203;SDS011;7185;51.854;6.622;2023-07-31T13:35:44;5.60;;;3.47;;
14203;SDS011;7185;51.854;6.622;2023-07-31T13:38:18;9.35;;;4.15;;
14203;SDS011;7185;51.854;6.622;2023-07-31T13:40:56;7.88;;;3.40;;
14203;SDS011;7185;51.854;6.622;2023-07-31T13:43:32;5.70;;;3.63;;
14203;SDS011;7185;51.854;6.622;2023-07-31T13:46:17;6.05;;;3.35;;
14203;SDS011;7185;51.854;6.622;2023-07-31T13:48:49;5.50;;;3.22;;
14203;SDS011;7185;51.854;6.622;2023-07-31T13:51:50;5.97;;;3.50;;
14203;SDS011;7185;51.854;6.622;2023-07-31T13:54:33;7.15;;;3.95;;
14203;SDS011;7185;51.854;6.622;2023-07-31T13:57:16;7.93;;;3.90;;
14203;SDS011;7185;51.854;6.622;2023-07-31T14:00:03;7.35;;;3.90;;
14203;SDS011;7185;51.854;6.622;2023-07-31T14:02:42;7.22;;;4.47;;
14203;SDS011;7185;51.854;6.622;2023-07-31T14:05:32;9.43;;;4.57;;
14203;SDS011;7185;51.854;6.622;2023-07-31T14:08:15;10.43;;;4.95;;
14203;SDS011;7185;51.854;6.622;2023-07-31T14:10:47;6.78;;;4.20;;
14203;SDS011;7185;51.854;6.622;2023-07-31T14:13:38;6.40;;;4.03;;
14203;SDS011;7185;51.854;6.622;2023-07-31T14:21:34;11.73;;;4.63;;
14203;SDS011;7185;51.854;6.622;2023-07-31T14:24:10;9.88;;;4.55;;
14203;SDS011;7185;51.854;6.622;2023-07-31T14:26:50;9.43;;;4.70;;
14203;SDS011;7185;51.854;6.622;2023-07-31T14:29:22;11.18;;;4.97;;
14203;SDS011;7185;51.854;6.622;2023-07-31T14:31:54;9.30;;;5.03;;
14203;SDS011;7185;51.854;6.622;2023-07-31T14:34:35;11.55;;;5.88;;
14203;SDS011;7185;51.854;6.622;2023-07-31T14:40:15;11.05;;;5.90;;
14203;SDS011;7185;51.854;6.622;2023-07-31T14:43:05;10.02;;;5.75;;
14203;SDS011;7185;51.854;6.622;2023-07-31T14:45:47;11.55;;;6.03;;
14203;SDS011;7185;51.854;6.622;2023-07-31T14:48:28;11.88;;;5.95;;
14203;SDS011;7185;51.854;6.622;2023-07-31T14:51:37;14.20;;;6.60;;
14203;SDS011;7185;51.854;6.622;2023-07-31T14:57:23;12.73;;;5.68;;
14203;SDS011;7185;51.854;6.622;2023-07-31T15:00:07;11.00;;;6.25;;
14203;SDS011;7185;51.854;6.622;2023-07-31T15:02:59;14.00;;;5.80;;
14203;SDS011;7185;51.854;6.622;2023-07-31T15:05:49;13.60;;;5.93;;
14203;SDS011;7185;51.854;6.622;2023-07-31T15:26:53;14.35;;;7.03;;
14203;SDS011;7185;51.854;6.622;2023-07-31T15:29:50;13.68;;;6.70;;
14203;SDS011;7185;51.854;6.622;2023-07-31T15:33:13;13.85;;;6.85;;
14203;SDS011;7185;51.854;6.622;2023-07-31T15:50:56;11.10;;;6.05;;
14203;SDS011;7185;51.854;6.622;2023-07-31T15:53:58;9.75;;;5.47;;
14203;SDS011;7185;51.854;6.622;2023-07-31T15:56:41;11.40;;;5.63;;
14203;SDS011;7185;51.854;6.622;2023-07-31T15:59:18;9.77;;;5.88;;
14203;SDS011;7185;51.854;6.622;2023-07-31T16:02:02;11.90;;;6.55;;
14203;SDS011;7185;51.854;6.622;2023-07-31T16:04:53;12.40;;;6.10;;
14203;SDS011;7185;51.854;6.622;2023-07-31T16:32:41;13.18;;;6.22;;
14203;SDS011;7185;51.854;6.622;2023-07-31T16:35:38;12.73;;;6.43;;
14203;SDS011;7185;51.854;6.622;2023-07-31T16:38:24;13.65;;;6.25;;
14203;SDS011;7185;51.854;6.622;2023-07-31T16:41:12;13.20;;;6.40;;
14203;SDS011;7185;51.854;6.622;2023-07-31T16:44:07;12.43;;;6.38;;
14203;SDS011;7185;51.854;6.622;2023-07-31T16:47:09;11.45;;;6.03;;
14203;SDS011;7185;51.854;6.622;2023-07-31T16:53:23;10.60;;;5.85;;
14203;SDS011;7185;51.854;6.622;2023-07-31T16:56:21;10.65;;;5.57;;
14203;SDS011;7185;51.854;6.622;2023-07-31T16:59:15;14.38;;;6.13;;
14203;SDS011;7185;51.854;6.622;2023-07-31T17:11:10;11.15;;;5.72;;
14203;SDS011;7185;51.854;6.622;2023-07-31T17:13:56;11.57;;;5.68;;
14203;SDS011;7185;51.854;6.622;2023-07-31T17:17:00;13.93;;;5.25;;
14203;SDS011;7185;51.854;6.622;2023-07-31T17:19:33;12.45;;;5.90;;
14203;SDS011;7185;51.854;6.622;2023-07-31T17:22:12;11.57;;;5.63;;
14203;SDS011;7185;51.854;6.622;2023-07-31T17:24:51;13.55;;;6.03;;
14203;SDS011;7185;51.854;6.622;2023-07-31T17:27:31;11.77;;;5.65;;
14203;SDS011;7185;51.854;6.622;2023-07-31T20:37:18;4.22;;;1.90;;
14203;SDS011;7185;51.854;6.622;2023-07-31T20:39:50;4.38;;;1.80;;
14203;SDS011;7185;51.854;6.622;2023-07-31T20:42:25;3.08;;;1.80;;
14203;SDS011;7185;51.854;6.622;2023-07-31T20:44:58;3.05;;;1.80;;
14203;SDS011;7185;51.854;6.622;2023-07-31T20:47:31;5.43;;;1.70;;
14203;SDS011;7185;51.854;6.622;2023-07-31T20:50:03;4.88;;;2.17;;
14203;SDS011;7185;51.854;6.622;2023-07-31T20:52:37;3.58;;;2.00;;
14203;SDS011;7185;51.854;6.622;2023-07-31T20:55:09;4.35;;;2.28;;
14203;SDS011;7185;51.854;6.622;2023-07-31T20:57:41;5.20;;;2.10;;
14203;SDS011;7185;51.854;6.622;2023-07-31T21:00:22;3.75;;;1.80;;
14203;SDS011;7185;51.854;6.622;2023-07-31T21:03:14;7.00;;;1.75;;
14203;SDS011;7185;51.854;6.622;2023-07-31T21:05:49;3.42;;;1.90;;
14203;SDS011;7185;51.854;6.622;2023-07-31T21:08:32;5.90;;;2.08;;
14203;SDS011;7185;51.854;6.622;2023-07-31T21:11:26;5.28;;;1.70;;
14203;SDS011;7185;51.854;6.622;2023-07-31T21:13:59;5.90;;;2.10;;
14203;SDS011;7185;51.854;6.622;2023-07-31T21:16:30;4.70;;;1.90;;
14203;SDS011;7185;51.854;6.622;2023-07-31T21:19:22;4.57;;;2.03;;
14203;SDS011;7185;51.854;6.622;2023-07-31T21:21:55;3.65;;;1.83;;
14203;SDS011;7185;51.854;6.622;2023-07-31T21:24:39;3.95;;;2.30;;
14203;SDS011;7185;51.854;6.622;2023-07-31T21:27:11;3.35;;;2.13;;
14203;SDS011;7185;51.854;6.622;2023-07-31T21:29:43;5.50;;;2.20;;
14203;SDS011;7185;51.854;6.622;2023-07-31T21:32:16;5.88;;;2.20;;
14203;SDS011;7185;51.854;6.622;2023-07-31T21:35:00;6.20;;;2.35;;
14203;SDS011;7185;51.854;6.622;2023-07-31T21:37:54;8.13;;;2.47;;
14203;SDS011;7185;51.854;6.622;2023-07-31T21:40:28;6.07;;;2.72;;
14203;SDS011;7185;51.854;6.622;2023-07-31T21:43:00;5.40;;;2.00;;
14203;SDS011;7185;51.854;6.622;2023-07-31T21:45:34;3.63;;;2.25;;
14203;SDS011;7185;51.854;6.622;2023-07-31T21:48:06;3.97;;;2.35;;
14203;SDS011;7185;51.854;6.622;2023-07-31T21:50:38;3.30;;;2.17;;
14203;SDS011;7185;51.854;6.622;2023-07-31T21:53:12;4.20;;;2.40;;
14203;SDS011;7185;51.854;6.622;2023-07-31T21:56:16;3.10;;;2.15;;
14203;SDS011;7185;51.854;6.622;2023-07-31T21:58:49;3.75;;;2.22;;
14203;SDS011;7185;51.854;6.622;2023-07-31T22:01:21;4.97;;;2.50;;
14203;SDS011;7185;51.854;6.622;2023-07-31T22:11:19;3.88;;;2.15;;
14203;SDS011;7185;51.854;6.622;2023-07-31T22:13:52;5.43;;;2.72;;
14203;SDS011;7185;51.854;6.622;2023-07-31T22:16:24;5.50;;;2.40;;
14203;SDS011;7185;51.854;6.622;2023-07-31T22:21:36;5.78;;;2.40;;
14203;SDS011;7185;51.854;6.622;2023-07-31T22:24:10;4.38;;;2.20;;
14203;SDS011;7185;51.854;6.622;2023-07-31T22:26:45;3.03;;;2.03;;
14203;SDS011;7185;51.854;6.622;2023-07-31T22:29:19;3.42;;;2.30;;
14203;SDS011;7185;51.854;6.622;2023-07-31T22:31:52;3.92;;;2.40;;
14203;SDS011;7185;51.854;6.622;2023-07-31T22:34:25;4.47;;;2.10;;
14203;SDS011;7185;51.854;6.622;2023-07-31T22:37:01;7.65;;;2.45;;
14203;SDS011;7185;51.854;6.622;2023-07-31T22:39:34;6.53;;;2.47;;
14203;SDS011;7185;51.854;6.622;2023-07-31T22:42:20;7.45;;;2.25;;
14203;SDS011;7185;51.854;6.622;2023-07-31T22:45:03;4.23;;;2.43;;
14203;SDS011;7185;51.854;6.622;2023-07-31T22:47:36;5.45;;;2.90;;
14203;SDS011;7185;51.854;6.622;2023-07-31T22:50:10;3.33;;;2.33;;
14203;SDS011;7185;51.854;6.622;2023-07-31T22:52:42;4.15;;;2.10;;
14203;SDS011;7185;51.854;6.622;2023-07-31T22:55:29;5.63;;;2.72;;
14203;SDS011;7185;51.854;6.622;2023-07-31T22:58:03;13.05;;;3.03;;
14203;SDS011;7185;51.854;6.622;2023-07-31T23:00:36;5.10;;;2.88;;
14203;SDS011;7185;51.854;6.622;2023-07-31T23:03:08;6.53;;;2.97;;
14203;SDS011;7185;51.854;6.622;2023-07-31T23:05:40;6.75;;;2.65;;
14203;SDS011;7185;51.854;6.622;2023-07-31T23:08:12;5.93;;;3.13;;
14203;SDS011;7185;51.854;6.622;2023-07-31T23:10:47;6.35;;;2.78;;
14203;SDS011;7185;51.854;6.622;2023-07-31T23:13:21;7.05;;;3.50;;
14203;SDS011;7185;51.854;6.622;2023-07-31T23:15:53;5.40;;;2.92;;
14203;SDS011;7185;51.854;6.622;2023-07-31T23:18:25;9.27;;;3.00;;
14203;SDS011;7185;51.854;6.622;2023-07-31T23:20:57;5.15;;;3.22;;
14203;SDS011;7185;51.854;6.622;2023-07-31T23:23:29;8.38;;;3.00;;
14203;SDS011;7185;51.854;6.622;2023-07-31T23:26:01;4.78;;;3.05;;
14203;SDS011;7185;51.854;6.622;2023-07-31T23:29:00;5.65;;;2.88;;
14203;SDS011;7185;51.854;6.622;2023-07-31T23:34:48;5.70;;;2.85;;
14203;SDS011;7185;51.854;6.622;2023-07-31T23:38:24;4.60;;;2.75;;
14203;SDS011;7185;51.854;6.622;2023-07-31T23:41:05;8.52;;;2.92;;
14203;SDS011;7185;51.854;6.622;2023-07-31T23:44:05;4.88;;;2.60;;
14203;SDS011;7185;51.854;6.622;2023-07-31T23:47:11;3.55;;;2.50;;
14203;SDS011;7185;51.854;6.622;2023-07-31T23:49:59;7.18;;;2.63;;
14203;SDS011;7185;51.854;6.622;2023-07-31T23:52:31;4.00;;;2.65;;
14203;SDS011;7185;51.854;6.622;2023-07-31T23:55:14;4.68;;;2.47;;
14203;SDS011;7185;51.854;6.622;2023-07-31T23:58:03;6.47;;;2.08;;
